sensor_id;sensor_type;location;lat;lon;timestamp;pressure;altitude;pressure_sealevel;temperature;humidity
22481;BME280;11407;56.964;-2.212;2022-07-01T00:00:26;101002.28;;;27.19;36.06
22481;BME280;11407;56.964;-2.212;2022-07-01T00:02:52;101007.47;;;27.20;36.14
22481;BME280;11407;56.964;-2.212;2022-07-01T00:05:17;101010.72;;;27.35;35.85
22481;BME280;11407;56.964;-2.212;2022-07-01T00:07:42;101005.16;;;27.24;35.88
22481;BME280;11407;56.964;-2.212;2022-07-01T00:10:08;101006.19;;;27.29;35.86
22481;BME280;11407;56.964;-2.212;2022-07-01T00:12:34;101003.28;;;27.24;35.82
22481;BME280;11407;56.964;-2.212;2022-07-01T00:14:59;101009.28;;;27.33;36.04
22481;BME280;11407;56.964;-2.212;2022-07-01T00:17:25;101007.81;;;27.37;36.04
22481;BME280;11407;56.964;-2.212;2022-07-01T00:19:50;101000.97;;;27.28;35.92
22481;BME280;11407;56.964;-2.212;2022-07-01T00:22:16;100987.16;;;27.42;35.63
22481;BME280;11407;56.964;-2.212;2022-07-01T00:24:42;100987.41;;;27.28;35.88
22481;BME280;11407;56.964;-2.212;2022-07-01T00:27:07;100986.91;;;27.13;36.15
22481;BME280;11407;56.964;-2.212;2022-07-01T00:29:33;100989.22;;;27.03;36.45
22481;BME280;11407;56.964;-2.212;2022-07-01T00:31:59;100989.41;;;27.01;36.80
22481;BME280;11407;56.964;-2.212;2022-07-01T00:34:25;100986.28;;;27.11;36.25
22481;BME280;11407;56.964;-2.212;2022-07-01T00:36:50;100984.94;;;27.26;35.91
22481;BME280;11407;56.964;-2.212;2022-07-01T00:39:16;100971.63;;;27.25;35.80
22481;BME280;11407;56.964;-2.212;2022-07-01T00:41:41;100981.88;;;27.16;35.51
22481;BME280;11407;56.964;-2.212;2022-07-01T00:44:18;100975.97;;;27.26;36.28
22481;BME280;11407;56.964;-2.212;2022-07-01T00:46:44;100983.94;;;27.21;35.72
22481;BME280;11407;56.964;-2.212;2022-07-01T00:49:10;100985.25;;;27.12;35.92
22481;BME280;11407;56.964;-2.212;2022-07-01T00:51:36;100991.91;;;27.09;36.10
22481;BME280;11407;56.964;-2.212;2022-07-01T00:54:02;100984.91;;;26.89;36.40
22481;BME280;11407;56.964;-2.212;2022-07-01T00:56:28;100990.72;;;26.92;36.13
22481;BME280;11407;56.964;-2.212;2022-07-01T00:58:55;100997.75;;;27.13;35.34
22481;BME280;11407;56.964;-2.212;2022-07-01T01:01:20;101006.94;;;26.99;36.32
22481;BME280;11407;56.964;-2.212;2022-07-01T01:03:48;100997.41;;;26.90;36.23
22481;BME280;11407;56.964;-2.212;2022-07-01T01:06:15;101002.75;;;27.03;36.02
22481;BME280;11407;56.964;-2.212;2022-07-01T01:08:41;101002.56;;;26.98;35.87
22481;BME280;11407;56.964;-2.212;2022-07-01T01:11:06;101002.34;;;26.93;36.34
22481;BME280;11407;56.964;-2.212;2022-07-01T01:13:33;101005.88;;;27.00;35.61
22481;BME280;11407;56.964;-2.212;2022-07-01T01:15:58;100997.78;;;27.00;35.60
22481;BME280;11407;56.964;-2.212;2022-07-01T01:18:24;101005.03;;;27.06;36.18
22481;BME280;11407;56.964;-2.212;2022-07-01T01:20:52;101000.00;;;27.16;35.59
22481;BME280;11407;56.964;-2.212;2022-07-01T01:23:17;101001.16;;;27.33;35.27
22481;BME280;11407;56.964;-2.212;2022-07-01T01:25:43;101003.38;;;27.05;35.83
22481;BME280;11407;56.964;-2.212;2022-07-01T01:28:09;100992.34;;;27.00;35.57
22481;BME280;11407;56.964;-2.212;2022-07-01T01:30:35;101003.19;;;27.06;36.13
22481;BME280;11407;56.964;-2.212;2022-07-01T01:33:01;101001.66;;;27.17;35.32
22481;BME280;11407;56.964;-2.212;2022-07-01T01:35:27;101004.91;;;27.32;35.47
22481;BME280;11407;56.964;-2.212;2022-07-01T01:37:52;100996.19;;;27.23;35.80
22481;BME280;11407;56.964;-2.212;2022-07-01T01:40:17;100996.69;;;27.14;36.05
22481;BME280;11407;56.964;-2.212;2022-07-01T01:42:43;100992.88;;;27.21;35.66
22481;BME280;11407;56.964;-2.212;2022-07-01T01:45:10;100985.66;;;27.09;36.36
22481;BME280;11407;56.964;-2.212;2022-07-01T01:47:36;100985.69;;;27.02;36.64
22481;BME280;11407;56.964;-2.212;2022-07-01T01:50:04;100975.50;;;26.98;36.67
22481;BME280;11407;56.964;-2.212;2022-07-01T01:52:31;100981.50;;;27.13;36.28
22481;BME280;11407;56.964;-2.212;2022-07-01T01:54:56;100966.22;;;27.25;35.73
22481;BME280;11407;56.964;-2.212;2022-07-01T01:57:22;100965.59;;;27.23;36.06
22481;BME280;11407;56.964;-2.212;2022-07-01T01:59:47;100969.25;;;26.91;36.74
22481;BME280;11407;56.964;-2.212;2022-07-01T02:02:13;100956.56;;;26.98;36.78
22481;BME280;11407;56.964;-2.212;2022-07-01T02:04:38;100954.59;;;27.18;35.94
22481;BME280;11407;56.964;-2.212;2022-07-01T02:07:03;100958.63;;;26.96;36.39
22481;BME280;11407;56.964;-2.212;2022-07-01T02:09:30;100953.31;;;27.20;36.30
22481;BME280;11407;56.964;-2.212;2022-07-01T02:11:55;100963.31;;;27.50;35.41
22481;BME280;11407;56.964;-2.212;2022-07-01T02:14:21;100954.50;;;27.31;35.93
22481;BME280;11407;56.964;-2.212;2022-07-01T02:16:46;100954.53;;;27.55;35.47
22481;BME280;11407;56.964;-2.212;2022-07-01T02:19:12;100962.16;;;27.40;35.46
22481;BME280;11407;56.964;-2.212;2022-07-01T02:21:37;100961.88;;;26.73;36.58
22481;BME280;11407;56.964;-2.212;2022-07-01T02:24:03;100965.91;;;27.02;36.15
22481;BME280;11407;56.964;-2.212;2022-07-01T02:26:28;100967.38;;;26.98;36.45
22481;BME280;11407;56.964;-2.212;2022-07-01T02:28:53;100970.69;;;27.00;36.36
22481;BME280;11407;56.964;-2.212;2022-07-01T02:31:19;100974.91;;;26.89;36.85
22481;BME280;11407;56.964;-2.212;2022-07-01T02:33:44;100973.06;;;26.83;36.74
22481;BME280;11407;56.964;-2.212;2022-07-01T02:36:10;100972.25;;;26.76;36.90
22481;BME280;11407;56.964;-2.212;2022-07-01T02:38:35;100970.72;;;26.93;36.53
22481;BME280;11407;56.964;-2.212;2022-07-01T02:41:00;100967.00;;;27.32;35.95
22481;BME280;11407;56.964;-2.212;2022-07-01T02:43:26;100957.56;;;27.41;35.56
22481;BME280;11407;56.964;-2.212;2022-07-01T02:45:51;100959.09;;;27.30;36.34
22481;BME280;11407;56.964;-2.212;2022-07-01T02:48:17;100950.25;;;27.10;36.21
22481;BME280;11407;56.964;-2.212;2022-07-01T02:50:42;100951.53;;;27.08;36.43
22481;BME280;11407;56.964;-2.212;2022-07-01T02:53:08;100946.38;;;26.93;36.58
22481;BME280;11407;56.964;-2.212;2022-07-01T02:55:33;100958.22;;;27.05;36.41
22481;BME280;11407;56.964;-2.212;2022-07-01T02:57:58;100954.00;;;27.09;36.52
22481;BME280;11407;56.964;-2.212;2022-07-01T03:00:24;100953.78;;;27.17;36.16
22481;BME280;11407;56.964;-2.212;2022-07-01T03:02:49;100953.38;;;27.14;35.97
22481;BME280;11407;56.964;-2.212;2022-07-01T03:05:15;100960.22;;;27.16;36.14
22481;BME280;11407;56.964;-2.212;2022-07-01T03:07:41;100969.41;;;27.15;36.70
22481;BME280;11407;56.964;-2.212;2022-07-01T03:10:07;100975.50;;;27.04;37.00
22481;BME280;11407;56.964;-2.212;2022-07-01T03:12:33;100961.66;;;27.49;36.06
22481;BME280;11407;56.964;-2.212;2022-07-01T03:15:05;100950.09;;;27.36;36.32
22481;BME280;11407;56.964;-2.212;2022-07-01T03:17:34;100946.16;;;27.63;35.40
22481;BME280;11407;56.964;-2.212;2022-07-01T03:20:00;100953.09;;;27.52;35.74
22481;BME280;11407;56.964;-2.212;2022-07-01T03:22:27;100959.56;;;27.51;35.51
22481;BME280;11407;56.964;-2.212;2022-07-01T03:24:53;100952.75;;;27.12;36.53
22481;BME280;11407;56.964;-2.212;2022-07-01T03:27:20;100953.84;;;27.04;36.90
22481;BME280;11407;56.964;-2.212;2022-07-01T03:29:45;100960.47;;;27.08;36.66
22481;BME280;11407;56.964;-2.212;2022-07-01T03:32:11;100962.72;;;27.18;36.39
22481;BME280;11407;56.964;-2.212;2022-07-01T03:34:49;100961.16;;;27.35;36.72
22481;BME280;11407;56.964;-2.212;2022-07-01T03:37:16;100962.56;;;27.13;36.32
22481;BME280;11407;56.964;-2.212;2022-07-01T03:39:42;100967.31;;;27.17;36.49
22481;BME280;11407;56.964;-2.212;2022-07-01T03:42:08;100976.38;;;26.85;37.13
22481;BME280;11407;56.964;-2.212;2022-07-01T03:44:35;100972.28;;;26.70;37.43
22481;BME280;11407;56.964;-2.212;2022-07-01T03:47:01;100979.03;;;26.42;37.81
22481;BME280;11407;56.964;-2.212;2022-07-01T03:49:27;100980.28;;;26.46;37.78
22481;BME280;11407;56.964;-2.212;2022-07-01T03:51:53;100965.59;;;26.79;38.12
22481;BME280;11407;56.964;-2.212;2022-07-01T03:54:19;100954.94;;;26.84;37.22
22481;BME280;11407;56.964;-2.212;2022-07-01T03:57:07;100949.25;;;27.05;37.18
22481;BME280;11407;56.964;-2.212;2022-07-01T03:59:38;100960.69;;;27.07;36.95
22481;BME280;11407;56.964;-2.212;2022-07-01T04:02:05;100969.81;;;27.12;36.87
22481;BME280;11407;56.964;-2.212;2022-07-01T04:04:31;100974.56;;;27.17;37.13
22481;BME280;11407;56.964;-2.212;2022-07-01T04:07:01;100973.09;;;27.21;36.89
22481;BME280;11407;56.964;-2.212;2022-07-01T04:09:28;100970.38;;;27.27;37.12
22481;BME280;11407;56.964;-2.212;2022-07-01T04:11:54;100970.16;;;27.22;36.96
22481;BME280;11407;56.964;-2.212;2022-07-01T04:14:20;100966.47;;;27.17;36.56
22481;BME280;11407;56.964;-2.212;2022-07-01T04:16:45;100961.59;;;27.32;36.84
22481;BME280;11407;56.964;-2.212;2022-07-01T04:19:14;100969.38;;;27.46;36.54
22481;BME280;11407;56.964;-2.212;2022-07-01T04:21:39;100973.81;;;27.41;36.44
22481;BME280;11407;56.964;-2.212;2022-07-01T04:24:24;100978.78;;;27.44;36.51
22481;BME280;11407;56.964;-2.212;2022-07-01T04:26:51;100976.69;;;27.46;36.32
22481;BME280;11407;56.964;-2.212;2022-07-01T04:29:17;100980.72;;;27.37;36.79
22481;BME280;11407;56.964;-2.212;2022-07-01T04:31:44;100963.00;;;27.34;36.61
22481;BME280;11407;56.964;-2.212;2022-07-01T04:34:10;100956.16;;;27.32;36.40
22481;BME280;11407;56.964;-2.212;2022-07-01T04:36:36;100959.72;;;27.26;36.77
22481;BME280;11407;56.964;-2.212;2022-07-01T04:39:05;100966.97;;;27.38;36.67
22481;BME280;11407;56.964;-2.212;2022-07-01T04:41:31;100959.50;;;27.34;36.82
22481;BME280;11407;56.964;-2.212;2022-07-01T04:44:15;100954.22;;;27.39;36.76
22481;BME280;11407;56.964;-2.212;2022-07-01T04:46:41;100963.63;;;27.36;36.49
22481;BME280;11407;56.964;-2.212;2022-07-01T04:49:06;100968.63;;;27.39;36.80
22481;BME280;11407;56.964;-2.212;2022-07-01T04:51:34;100974.16;;;27.50;36.66
22481;BME280;11407;56.964;-2.212;2022-07-01T04:54:09;100975.38;;;27.54;36.68
22481;BME280;11407;56.964;-2.212;2022-07-01T04:56:35;100978.97;;;27.48;36.44
22481;BME280;11407;56.964;-2.212;2022-07-01T04:59:02;100985.06;;;27.38;37.11
22481;BME280;11407;56.964;-2.212;2022-07-01T05:01:28;100987.78;;;27.38;37.24
22481;BME280;11407;56.964;-2.212;2022-07-01T05:03:54;101000.34;;;27.26;37.21
22481;BME280;11407;56.964;-2.212;2022-07-01T05:06:19;100994.94;;;27.26;37.04
22481;BME280;11407;56.964;-2.212;2022-07-01T05:08:45;101003.56;;;27.47;37.08
22481;BME280;11407;56.964;-2.212;2022-07-01T05:11:10;100998.94;;;27.54;36.73
22481;BME280;11407;56.964;-2.212;2022-07-01T05:13:36;101008.66;;;27.61;36.45
22481;BME280;11407;56.964;-2.212;2022-07-01T05:16:02;101008.22;;;27.71;36.86
22481;BME280;11407;56.964;-2.212;2022-07-01T05:18:28;101014.56;;;27.83;36.31
22481;BME280;11407;56.964;-2.212;2022-07-01T05:21:12;101025.69;;;27.75;36.68
22481;BME280;11407;56.964;-2.212;2022-07-01T05:23:56;101008.38;;;27.76;36.34
22481;BME280;11407;56.964;-2.212;2022-07-01T05:26:21;100998.56;;;27.81;36.13
22481;BME280;11407;56.964;-2.212;2022-07-01T05:28:48;100992.75;;;27.41;37.11
22481;BME280;11407;56.964;-2.212;2022-07-01T05:31:13;101002.91;;;27.51;37.36
22481;BME280;11407;56.964;-2.212;2022-07-01T05:33:39;101011.25;;;27.50;37.26
22481;BME280;11407;56.964;-2.212;2022-07-01T05:36:05;100996.44;;;27.52;37.27
22481;BME280;11407;56.964;-2.212;2022-07-01T05:38:30;100988.44;;;27.33;37.45
22481;BME280;11407;56.964;-2.212;2022-07-01T05:40:56;101005.50;;;27.40;37.18
22481;BME280;11407;56.964;-2.212;2022-07-01T05:43:21;101012.34;;;27.43;37.43
22481;BME280;11407;56.964;-2.212;2022-07-01T05:45:47;101016.94;;;27.42;37.57
22481;BME280;11407;56.964;-2.212;2022-07-01T05:48:13;101014.19;;;27.48;37.32
22481;BME280;11407;56.964;-2.212;2022-07-01T05:50:41;101020.22;;;27.44;37.91
22481;BME280;11407;56.964;-2.212;2022-07-01T05:53:08;101032.53;;;27.47;37.26
22481;BME280;11407;56.964;-2.212;2022-07-01T05:55:34;101030.72;;;27.71;36.50
22481;BME280;11407;56.964;-2.212;2022-07-01T05:57:59;101035.91;;;27.42;37.33
22481;BME280;11407;56.964;-2.212;2022-07-01T06:00:27;101026.22;;;27.22;37.44
22481;BME280;11407;56.964;-2.212;2022-07-01T06:02:52;101037.75;;;27.42;37.21
22481;BME280;11407;56.964;-2.212;2022-07-01T06:05:18;101046.66;;;27.11;37.81
22481;BME280;11407;56.964;-2.212;2022-07-01T06:07:43;101036.06;;;27.10;38.09
22481;BME280;11407;56.964;-2.212;2022-07-01T06:10:09;101046.16;;;27.34;37.20
22481;BME280;11407;56.964;-2.212;2022-07-01T06:12:36;101034.00;;;27.43;37.14
22481;BME280;11407;56.964;-2.212;2022-07-01T06:15:01;101034.19;;;27.48;37.09
22481;BME280;11407;56.964;-2.212;2022-07-01T06:17:27;101029.16;;;27.51;36.74
22481;BME280;11407;56.964;-2.212;2022-07-01T06:19:52;101017.66;;;27.55;37.24
22481;BME280;11407;56.964;-2.212;2022-07-01T06:22:19;101017.47;;;27.50;37.15
22481;BME280;11407;56.964;-2.212;2022-07-01T06:24:46;101017.44;;;27.57;37.36
22481;BME280;11407;56.964;-2.212;2022-07-01T06:27:12;101011.81;;;27.58;37.47
22481;BME280;11407;56.964;-2.212;2022-07-01T06:29:37;101005.22;;;27.79;37.42
22481;BME280;11407;56.964;-2.212;2022-07-01T06:32:04;101000.63;;;28.04;37.54
22481;BME280;11407;56.964;-2.212;2022-07-01T06:34:30;100997.78;;;28.23;37.74
22481;BME280;11407;56.964;-2.212;2022-07-01T06:36:56;100985.75;;;28.55;37.96
22481;BME280;11407;56.964;-2.212;2022-07-01T06:39:21;100976.47;;;28.80;36.78
22481;BME280;11407;56.964;-2.212;2022-07-01T06:41:47;100978.88;;;28.70;37.73
22481;BME280;11407;56.964;-2.212;2022-07-01T06:44:12;100972.78;;;28.75;37.38
22481;BME280;11407;56.964;-2.212;2022-07-01T06:46:38;100978.28;;;28.86;37.15
22481;BME280;11407;56.964;-2.212;2022-07-01T06:49:04;100979.13;;;28.87;36.85
22481;BME280;11407;56.964;-2.212;2022-07-01T06:51:30;100971.88;;;28.99;36.81
22481;BME280;11407;56.964;-2.212;2022-07-01T06:53:55;100967.63;;;29.03;36.52
22481;BME280;11407;56.964;-2.212;2022-07-01T06:56:21;100969.34;;;28.86;36.48
22481;BME280;11407;56.964;-2.212;2022-07-01T06:58:47;100972.31;;;28.96;36.16
22481;BME280;11407;56.964;-2.212;2022-07-01T07:01:12;100971.63;;;29.00;36.07
22481;BME280;11407;56.964;-2.212;2022-07-01T07:03:37;100967.88;;;29.01;36.43
22481;BME280;11407;56.964;-2.212;2022-07-01T07:06:03;100983.56;;;29.29;35.51
22481;BME280;11407;56.964;-2.212;2022-07-01T07:08:30;100982.44;;;29.18;34.62
22481;BME280;11407;56.964;-2.212;2022-07-01T07:10:56;100980.50;;;29.36;34.94
22481;BME280;11407;56.964;-2.212;2022-07-01T07:13:21;100992.06;;;29.50;34.88
22481;BME280;11407;56.964;-2.212;2022-07-01T07:15:47;100990.75;;;29.52;34.88
22481;BME280;11407;56.964;-2.212;2022-07-01T07:18:12;101001.03;;;29.50;34.41
22481;BME280;11407;56.964;-2.212;2022-07-01T07:20:38;100990.50;;;29.54;33.91
22481;BME280;11407;56.964;-2.212;2022-07-01T07:23:04;100997.59;;;29.43;33.85
22481;BME280;11407;56.964;-2.212;2022-07-01T07:25:30;100995.56;;;29.39;33.39
22481;BME280;11407;56.964;-2.212;2022-07-01T07:27:56;100990.94;;;29.39;33.60
22481;BME280;11407;56.964;-2.212;2022-07-01T07:30:22;100990.19;;;29.62;33.27
22481;BME280;11407;56.964;-2.212;2022-07-01T07:32:48;100991.31;;;29.43;33.32
22481;BME280;11407;56.964;-2.212;2022-07-01T07:35:13;101000.31;;;29.43;33.57
22481;BME280;11407;56.964;-2.212;2022-07-01T07:37:39;100996.44;;;29.62;33.28
22481;BME280;11407;56.964;-2.212;2022-07-01T07:40:07;101001.41;;;29.95;32.89
22481;BME280;11407;56.964;-2.212;2022-07-01T07:42:35;101012.16;;;30.13;32.86
22481;BME280;11407;56.964;-2.212;2022-07-01T07:45:01;101002.50;;;29.76;32.83
22481;BME280;11407;56.964;-2.212;2022-07-01T07:47:27;101000.84;;;29.75;31.77
22481;BME280;11407;56.964;-2.212;2022-07-01T07:49:53;101006.97;;;29.70;32.43
22481;BME280;11407;56.964;-2.212;2022-07-01T07:52:18;100992.81;;;29.68;32.83
22481;BME280;11407;56.964;-2.212;2022-07-01T07:54:44;101000.75;;;29.93;32.23
22481;BME280;11407;56.964;-2.212;2022-07-01T07:57:09;100998.50;;;29.78;32.08
22481;BME280;11407;56.964;-2.212;2022-07-01T07:59:35;101000.38;;;29.78;32.29
22481;BME280;11407;56.964;-2.212;2022-07-01T08:02:01;100998.84;;;29.93;32.10
22481;BME280;11407;56.964;-2.212;2022-07-01T08:04:26;100993.56;;;30.10;32.60
22481;BME280;11407;56.964;-2.212;2022-07-01T08:06:52;100996.78;;;30.18;31.78
22481;BME280;11407;56.964;-2.212;2022-07-01T08:09:17;100991.31;;;30.41;31.06
22481;BME280;11407;56.964;-2.212;2022-07-01T08:11:44;101003.06;;;30.53;30.75
22481;BME280;11407;56.964;-2.212;2022-07-01T08:14:09;101002.09;;;30.25;30.85
22481;BME280;11407;56.964;-2.212;2022-07-01T08:16:35;101001.06;;;30.37;31.40
22481;BME280;11407;56.964;-2.212;2022-07-01T08:19:01;100997.50;;;30.48;31.29
22481;BME280;11407;56.964;-2.212;2022-07-01T08:21:28;100998.78;;;30.34;30.68
22481;BME280;11407;56.964;-2.212;2022-07-01T08:23:53;101008.03;;;30.10;30.82
22481;BME280;11407;56.964;-2.212;2022-07-01T08:26:19;100995.34;;;30.04;31.39
22481;BME280;11407;56.964;-2.212;2022-07-01T08:28:44;100995.78;;;29.90;30.97
22481;BME280;11407;56.964;-2.212;2022-07-01T08:31:10;100995.56;;;29.91;31.16
22481;BME280;11407;56.964;-2.212;2022-07-01T08:33:35;101000.09;;;29.97;31.14
22481;BME280;11407;56.964;-2.212;2022-07-01T08:36:04;100987.56;;;30.08;30.41
22481;BME280;11407;56.964;-2.212;2022-07-01T08:38:29;100982.69;;;30.10;30.65
22481;BME280;11407;56.964;-2.212;2022-07-01T08:40:55;100987.06;;;30.11;30.92
22481;BME280;11407;56.964;-2.212;2022-07-01T08:43:20;100988.41;;;30.20;30.34
22481;BME280;11407;56.964;-2.212;2022-07-01T08:45:46;100983.41;;;30.39;30.30
22481;BME280;11407;56.964;-2.212;2022-07-01T08:48:12;100983.88;;;30.36;30.21
22481;BME280;11407;56.964;-2.212;2022-07-01T08:50:40;100983.78;;;30.32;30.60
22481;BME280;11407;56.964;-2.212;2022-07-01T08:53:07;100983.06;;;30.36;30.14
22481;BME280;11407;56.964;-2.212;2022-07-01T08:55:33;100983.41;;;30.39;30.11
22481;BME280;11407;56.964;-2.212;2022-07-01T08:58:24;100983.63;;;30.15;30.87
22481;BME280;11407;56.964;-2.212;2022-07-01T09:00:50;100992.06;;;30.14;30.98
22481;BME280;11407;56.964;-2.212;2022-07-01T09:03:15;100979.84;;;30.16;30.80
22481;BME280;11407;56.964;-2.212;2022-07-01T09:05:51;100973.94;;;30.19;30.37
22481;BME280;11407;56.964;-2.212;2022-07-01T09:08:17;100979.28;;;30.26;30.81
22481;BME280;11407;56.964;-2.212;2022-07-01T09:10:42;100977.41;;;30.26;30.39
22481;BME280;11407;56.964;-2.212;2022-07-01T09:13:10;100978.44;;;30.14;29.61
22481;BME280;11407;56.964;-2.212;2022-07-01T09:15:38;100973.59;;;30.27;31.00
22481;BME280;11407;56.964;-2.212;2022-07-01T09:20:39;100981.28;;;30.53;30.56
22481;BME280;11407;56.964;-2.212;2022-07-01T09:23:07;100978.22;;;30.61;31.29
22481;BME280;11407;56.964;-2.212;2022-07-01T09:25:47;100988.34;;;30.77;31.57
22481;BME280;11407;56.964;-2.212;2022-07-01T09:28:23;100975.50;;;30.89;31.47
22481;BME280;11407;56.964;-2.212;2022-07-01T09:30:50;100981.50;;;31.14;31.37
22481;BME280;11407;56.964;-2.212;2022-07-01T09:35:44;100982.50;;;30.85;31.60
22481;BME280;11407;56.964;-2.212;2022-07-01T09:38:12;100980.94;;;31.00;31.30
22481;BME280;11407;56.964;-2.212;2022-07-01T09:40:54;100981.97;;;30.71;32.10
22481;BME280;11407;56.964;-2.212;2022-07-01T09:46:02;100985.97;;;31.20;31.58
22481;BME280;11407;56.964;-2.212;2022-07-01T09:51:01;100975.75;;;31.27;31.65
22481;BME280;11407;56.964;-2.212;2022-07-01T09:53:27;100974.53;;;31.34;31.20
22481;BME280;11407;56.964;-2.212;2022-07-01T09:55:53;100961.66;;;31.46;32.03
22481;BME280;11407;56.964;-2.212;2022-07-01T09:58:19;100951.56;;;31.58;31.78
22481;BME280;11407;56.964;-2.212;2022-07-01T10:00:45;100948.56;;;31.59;31.95
22481;BME280;11407;56.964;-2.212;2022-07-01T10:03:11;100941.13;;;31.71;31.84
22481;BME280;11407;56.964;-2.212;2022-07-01T10:05:57;100940.88;;;31.89;30.87
22481;BME280;11407;56.964;-2.212;2022-07-01T10:13:43;100946.66;;;32.25;30.87
22481;BME280;11407;56.964;-2.212;2022-07-01T10:16:10;100946.06;;;32.23;30.61
22481;BME280;11407;56.964;-2.212;2022-07-01T10:18:36;100950.28;;;32.31;30.64
22481;BME280;11407;56.964;-2.212;2022-07-01T10:21:02;100941.84;;;32.16;31.07
22481;BME280;11407;56.964;-2.212;2022-07-01T10:23:43;100944.53;;;32.11;30.90
22481;BME280;11407;56.964;-2.212;2022-07-01T10:26:08;100954.44;;;32.17;30.96
22481;BME280;11407;56.964;-2.212;2022-07-01T10:31:14;100947.63;;;32.20;30.45
22481;BME280;11407;56.964;-2.212;2022-07-01T10:34:04;100958.41;;;31.93;30.57
22481;BME280;11407;56.964;-2.212;2022-07-01T10:36:34;100960.56;;;31.75;31.32
22481;BME280;11407;56.964;-2.212;2022-07-01T10:41:27;100950.47;;;31.92;30.68
22481;BME280;11407;56.964;-2.212;2022-07-01T10:43:56;100951.63;;;31.79;30.89
22481;BME280;11407;56.964;-2.212;2022-07-01T10:46:41;100955.25;;;31.85;29.98
22481;BME280;11407;56.964;-2.212;2022-07-01T10:49:13;100957.00;;;31.74;30.76
22481;BME280;11407;56.964;-2.212;2022-07-01T10:54:07;100955.16;;;31.47;31.59
22481;BME280;11407;56.964;-2.212;2022-07-01T10:56:40;100963.13;;;31.37;31.83
22481;BME280;11407;56.964;-2.212;2022-07-01T10:59:06;100967.59;;;31.71;31.28
22481;BME280;11407;56.964;-2.212;2022-07-01T11:01:31;100961.47;;;31.80;31.41
22481;BME280;11407;56.964;-2.212;2022-07-01T11:03:57;100949.41;;;31.93;31.31
22481;BME280;11407;56.964;-2.212;2022-07-01T11:06:24;100953.34;;;32.18;30.61
22481;BME280;11407;56.964;-2.212;2022-07-01T11:08:50;100944.81;;;32.31;30.83
22481;BME280;11407;56.964;-2.212;2022-07-01T11:11:15;100943.06;;;32.63;30.01
22481;BME280;11407;56.964;-2.212;2022-07-01T11:13:42;100954.06;;;32.68;29.68
22481;BME280;11407;56.964;-2.212;2022-07-01T11:16:08;100943.66;;;32.65;29.87
22481;BME280;11407;56.964;-2.212;2022-07-01T11:18:34;100946.81;;;32.57;30.35
22481;BME280;11407;56.964;-2.212;2022-07-01T11:21:04;100941.00;;;32.53;29.06
22481;BME280;11407;56.964;-2.212;2022-07-01T11:23:30;100946.28;;;32.38;29.43
22481;BME280;11407;56.964;-2.212;2022-07-01T11:25:55;100955.00;;;32.19;29.87
22481;BME280;11407;56.964;-2.212;2022-07-01T11:28:21;100954.88;;;32.09;29.48
22481;BME280;11407;56.964;-2.212;2022-07-01T11:30:46;100956.31;;;32.00;30.10
22481;BME280;11407;56.964;-2.212;2022-07-01T11:33:12;100955.34;;;31.90;29.70
22481;BME280;11407;56.964;-2.212;2022-07-01T11:35:37;100951.41;;;31.64;29.74
22481;BME280;11407;56.964;-2.212;2022-07-01T11:38:24;100958.53;;;31.54;30.59
22481;BME280;11407;56.964;-2.212;2022-07-01T11:41:18;100959.00;;;31.51;30.33
22481;BME280;11407;56.964;-2.212;2022-07-01T11:43:44;100960.50;;;31.42;30.61
22481;BME280;11407;56.964;-2.212;2022-07-01T11:46:09;100962.72;;;31.28;29.93
22481;BME280;11407;56.964;-2.212;2022-07-01T11:51:14;100954.56;;;30.89;30.04
22481;BME280;11407;56.964;-2.212;2022-07-01T11:53:52;100943.22;;;30.81;30.65
22481;BME280;11407;56.964;-2.212;2022-07-01T11:56:33;100945.34;;;30.79;29.91
22481;BME280;11407;56.964;-2.212;2022-07-01T11:58:59;100946.22;;;30.68;30.51
22481;BME280;11407;56.964;-2.212;2022-07-01T12:01:34;100950.38;;;30.47;30.88
22481;BME280;11407;56.964;-2.212;2022-07-01T12:04:04;100947.28;;;30.67;31.40
22481;BME280;11407;56.964;-2.212;2022-07-01T12:06:31;100956.53;;;30.66;31.50
22481;BME280;11407;56.964;-2.212;2022-07-01T12:08:58;100959.84;;;30.56;31.88
22481;BME280;11407;56.964;-2.212;2022-07-01T12:11:26;100955.72;;;30.65;30.91
22481;BME280;11407;56.964;-2.212;2022-07-01T12:13:52;100955.31;;;30.73;30.83
22481;BME280;11407;56.964;-2.212;2022-07-01T12:16:19;100950.22;;;30.77;31.42
22481;BME280;11407;56.964;-2.212;2022-07-01T12:21:16;100946.75;;;30.53;31.85
22481;BME280;11407;56.964;-2.212;2022-07-01T12:23:42;100940.94;;;30.50;31.43
22481;BME280;11407;56.964;-2.212;2022-07-01T12:26:07;100943.75;;;30.66;31.67
22481;BME280;11407;56.964;-2.212;2022-07-01T12:28:41;100944.97;;;30.59;31.67
22481;BME280;11407;56.964;-2.212;2022-07-01T12:31:09;100948.88;;;30.51;31.90
22481;BME280;11407;56.964;-2.212;2022-07-01T12:33:40;100956.66;;;30.48;31.69
22481;BME280;11407;56.964;-2.212;2022-07-01T12:36:13;100952.28;;;30.47;31.98
22481;BME280;11407;56.964;-2.212;2022-07-01T12:38:40;100943.84;;;30.71;31.28
22481;BME280;11407;56.964;-2.212;2022-07-01T12:41:35;100943.91;;;30.88;30.92
22481;BME280;11407;56.964;-2.212;2022-07-01T12:44:05;100943.81;;;30.83;30.87
22481;BME280;11407;56.964;-2.212;2022-07-01T12:46:32;100939.09;;;30.78;31.12
22481;BME280;11407;56.964;-2.212;2022-07-01T12:48:58;100942.25;;;30.87;30.67
22481;BME280;11407;56.964;-2.212;2022-07-01T12:51:33;100942.69;;;31.07;30.97
22481;BME280;11407;56.964;-2.212;2022-07-01T12:53:59;100958.47;;;31.21;31.02
22481;BME280;11407;56.964;-2.212;2022-07-01T12:56:28;100947.44;;;31.27;30.61
22481;BME280;11407;56.964;-2.212;2022-07-01T12:58:55;100958.84;;;31.41;30.72
22481;BME280;11407;56.964;-2.212;2022-07-01T13:01:21;100959.09;;;31.39;31.42
22481;BME280;11407;56.964;-2.212;2022-07-01T13:03:48;100966.91;;;31.64;30.67
22481;BME280;11407;56.964;-2.212;2022-07-01T13:06:13;100977.75;;;31.59;30.35
22481;BME280;11407;56.964;-2.212;2022-07-01T13:08:39;100979.63;;;31.58;30.52